Data for 05/05/2009

Time Sea-Level Adjusted Pressure Absolute Pressure Temperature Relative Humidity Dew Point   
(mb) (inHg) (mb) (inHg) (C) (F) (%) (C) (F)
00:05 1010 29.83 839 24.78 6.4 43.6 48 -3.8 25.2
00:10 1010 29.83 839 24.78 6.5 43.7 48 -3.8 25.1
00:15 1010 29.83 839 24.78 6.5 43.6 49 -3.4 25.9
00:20 1010 29.83 839 24.78 6.6 43.9 47 -3.9 24.9
00:25 1010 29.83 839 24.78 6.9 44.3 49 -3.2 26.3
00:30 1010 29.83 839 24.78 6.5 43.7 49 -3.4 26
00:35 1010 29.83 839 24.78 7 44.6 48 -3.2 26.3
00:40 1010 29.83 839 24.78 6.9 44.4 50 -2.8 27
00:45 1010 29.83 839 24.78 7.1 44.7 50 -2.8 27
00:50 1010 29.83 839 24.78 7.7 45.9 48 -2.6 27.3
00:55 1010 29.83 839 24.78 8.8 47.8 45 -2.5 27.6
01:00 1010 29.83 839 24.78 9.3 48.7 45 -2 28.5
01:05 1010 29.83 839 24.78 9 48.2 46 -2 28.4
01:10 1010 29.83 839 24.78 8.1 46.6 49 -2 28.4
01:15 1010 29.83 839 24.78 7.8 46 49 -2.2 28.1
01:20 1010 29.83 839 24.78 7.5 45.5 51 -1.9 28.6
01:25 1010 29.83 839 24.78 7.4 45.4 51 -2.1 28.3
01:30 1010 29.83 839 24.78 7.9 46.2 50 -1.8 28.7
01:35 1010 29.83 839 24.78 8.7 47.6 49 -1.5 29.4
01:40 1010 29.83 839 24.78 9.3 48.8 46 -1.6 29.1
01:45 1010 29.83 839 24.78 9.9 49.7 46 -1.2 29.9
01:50 1009 29.8 839 24.78 9.8 49.6 48 -0.8 30.6
01:55 1009 29.8 839 24.78 9.7 49.5 48 -0.8 30.5
02:00 1009 29.8 839 24.78 9.7 49.4 48 -0.6 30.9
02:05 1009 29.8 839 24.78 9.6 49.3 50 -0.3 31.4
02:10 1009 29.8 838 24.75 9.5 49.2 51 -0.2 31.7
02:15 1009 29.8 838 24.75 9.5 49.1 51 0 32
02:20 1009 29.8 838 24.75 9.4 48.9 52 0.2 32.4
02:25 1009 29.8 838 24.75 9.4 48.9 52 0.1 32.1
02:30 1009 29.8 838 24.75 9.5 49.1 52 0.3 32.6
02:35 1009 29.8 838 24.75 9.4 48.9 53 0.4 32.6
02:40 1009 29.8 838 24.75 9.1 48.4 55 0.5 32.9
02:45 1009 29.8 838 24.75 9.1 48.4 55 0.5 33
02:50 1009 29.8 838 24.75 9.3 48.7 54 0.5 32.8
02:55 1009 29.8 838 24.75 9.4 48.9 53 0.4 32.8
03:00 1009 29.8 838 24.75 9.5 49.1 54 0.6 33.1
03:05 1009 29.8 838 24.75 9.5 49.1 54 0.7 33.2
03:10 1009 29.8 838 24.75 9.5 49 54 0.7 33.3
03:15 1009 29.8 838 24.75 9.5 49.1 54 0.7 33.2
03:20 1009 29.8 838 24.75 9.5 49.1 54 0.8 33.4
03:25 1009 29.8 838 24.75 9.5 49 54 0.6 33.2
03:30 1009 29.8 838 24.75 9.5 49 54 0.7 33.3
03:35 1009 29.8 838 24.75 9.4 49 55 0.8 33.5
03:40 1009 29.8 838 24.75 9.3 48.8 55 0.7 33.3
03:45 1009 29.8 838 24.75 9.3 48.7 56 0.9 33.7
03:50 1009 29.8 838 24.75 9 48.2 57 1.1 34
03:55 1009 29.8 838 24.75 8.7 47.7 59 1.2 34.2
04:00 1009 29.8 838 24.75 8.4 47.1 60 1.1 33.9
04:05 1009 29.8 838 24.75 8.4 47.2 61 1.4 34.5
04:10 1009 29.8 838 24.75 8.3 47 60 1.1 33.9
04:15 1009 29.8 838 24.75 8.4 47.1 62 1.5 34.7
04:20 1009 29.8 838 24.75 8.4 47.1 62 1.6 34.9
04:25 1009 29.8 838 24.75 8.2 46.8 63 1.6 34.9
04:30 1009 29.8 838 24.75 8.1 46.5 64 1.8 35.2
04:35 1009 29.8 838 24.75 7.9 46.2 66 1.9 35.5
04:40 1009 29.8 838 24.75 7.6 45.7 67 2 35.6
04:45 1009 29.8 838 24.75 7.5 45.5 68 1.9 35.5
04:50 1009 29.8 838 24.75 7.3 45.2 68 1.9 35.5
04:55 1009 29.8 838 24.75 7.3 45.1 68 1.8 35.3
05:00 1009 29.8 838 24.75 7.3 45.2 68 1.9 35.5
05:05 1009 29.8 838 24.75 7.2 45 68 1.8 35.3
05:10 1009 29.8 838 24.75 7.4 45.3 64 1.1 34
05:15 1009 29.8 838 24.75 8.1 46.5 61 1 33.7
05:20 1009 29.8 838 24.75 8.5 47.2 62 1.6 35
05:25 1009 29.8 838 24.75 8.5 47.2 65 2.2 36
05:30 1009 29.8 838 24.75 8.2 46.8 62 1.3 34.4
05:35 1009 29.8 838 24.75 8.5 47.3 60 1.3 34.3
05:40 1009 29.8 838 24.75 8.6 47.5 61 1.5 34.7
05:45 1009 29.8 838 24.75 8.6 47.5 60 1.2 34.1
05:50 1009 29.8 838 24.75 9 48.2 56 0.8 33.4
05:55 1009 29.8 838 24.75 9.2 48.6 57 1.2 34.2
06:00 1009 29.8 838 24.75 9.1 48.3 58 1.2 34.2
06:05 1009 29.8 839 24.78 9.3 48.7 53 0.3 32.6
06:10 1009 29.8 838 24.75 9.9 49.7 53 0.7 33.2
06:15 1009 29.8 839 24.78 10 50 52 0.6 33.1
06:20 1009 29.8 838 24.75 10 50 52 0.6 33.1
06:25 1009 29.8 838 24.75 10.1 50.2 51 0.5 32.9
06:30 1009 29.8 838 24.75 10.1 50.1 52 0.6 33.1
06:35 1009 29.8 838 24.75 10 49.9 52 0.6 33.1
06:40 1009 29.8 838 24.75 9.9 49.7 52 0.6 33.1
06:45 1009 29.8 838 24.75 10.1 50.2 50 0.3 32.5
06:50 1009 29.8 838 24.75 10.5 50.8 49 0.3 32.5
06:55 1009 29.8 838 24.75 10.6 51.2 49 0.3 32.6
07:00 1009 29.8 838 24.75 10.6 51.1 49 0.4 32.8
07:05 1009 29.8 838 24.75 10.8 51.4 47 0.1 32.2
07:10 1009 29.8 838 24.75 11.3 52.3 47 0.3 32.5
07:15 1009 29.8 838 24.75 11.4 52.6 46 0.3 32.5
07:20 1009 29.8 839 24.78 11.6 52.9 43 -0.4 31.4
07:25 1009 29.8 838 24.75 12 53.6 42 -0.4 31.2
07:30 1009 29.8 838 24.75 12.3 54.1 42 -0.3 31.5
07:35 1009 29.8 838 24.75 12.3 54.1 43 -0 32
07:40 1009 29.8 838 24.75 12.2 54 44 0.4 32.6
07:45 1009 29.8 838 24.75 12 53.6 45 0.6 33.1
07:50 1009 29.8 838 24.75 12 53.5 45 0.5 32.8
07:55 1009 29.8 838 24.75 11.9 53.3 46 0.8 33.5
08:00 1009 29.8 838 24.75 12 53.5 46 0.8 33.5
08:05 1009 29.8 839 24.78 12 53.5 46 0.7 33.3
08:10 1009 29.8 838 24.75 11.9 53.3 45 0.5 32.9
08:15 1009 29.8 838 24.75 12.4 54.4 43 0.2 32.3
08:20 1009 29.8 839 24.78 12.6 54.7 44 0.7 33.2
08:25 1009 29.8 839 24.78 12.6 54.8 44 0.8 33.5
08:30 1009 29.8 839 24.78 12.7 54.9 44 0.9 33.6
08:35 1009 29.8 839 24.78 12.8 55 45 1.1 34
08:40 1009 29.8 839 24.78 12.8 55.1 45 1.4 34.5
08:45 1009 29.8 839 24.78 12.2 54 46 1.1 34
08:50 1009 29.8 839 24.78 12.3 54.2 46 1.1 34
08:55 1009 29.8 839 24.78 12.8 55 45 1.1 34
09:00 1009 29.8 839 24.78 12.5 54.5 46 1.3 34.3
09:05 1009 29.8 839 24.78 12.4 54.2 45 0.8 33.4
09:10 1009 29.8 839 24.78 12.5 54.5 44 0.6 33.1
09:15 1009 29.8 839 24.78 12.7 54.9 42 0.1 32.3
09:20 1010 29.83 839 24.78 12.9 55.2 42 0.2 32.4
09:25 1010 29.83 839 24.78 13 55.5 42 0.5 32.9
09:30 1010 29.83 839 24.78 13.2 55.7 42 0.7 33.2
09:35 1009 29.8 839 24.78 13.6 56.5 41 0.6 33
09:40 1009 29.8 839 24.78 13.6 56.5 40 0.3 32.6
09:45 1009 29.8 839 24.78 13.6 56.4 39 -0.2 31.6
09:50 1009 29.8 839 24.78 13.8 56.8 36 -0.8 30.5
09:55 1009 29.8 838 24.75 14 57.1 36 -0.8 30.5
10:00 1009 29.8 838 24.75 14.4 58 36 -0.2 31.6
10:05 1009 29.8 838 24.75 14.5 58.1 37 0 32
10:10 1009 29.8 838 24.75 14.6 58.4 35 -0.4 31.2
10:15 1009 29.8 838 24.75 15.5 59.8 34 -0.1 31.8
10:20 1009 29.8 838 24.75 14.3 57.8 37 -0.1 31.9
10:25 1009 29.8 838 24.75 14.3 57.8 36 -0.6 31
10:30 1009 29.8 838 24.75 14.6 58.3 34 -1.2 29.8
10:35 1009 29.8 838 24.75 14.2 57.5 35 -0.9 30.3
10:40 1009 29.8 838 24.75 14.8 58.7 33 -1.3 29.7
10:45 1009 29.8 838 24.75 15.4 59.6 32 -1 30.3
10:50 1009 29.8 838 24.75 15.4 59.6 33 -0.6 30.9
10:55 1009 29.8 838 24.75 14.3 57.8 36 -0.5 31.2
11:00 1009 29.8 838 24.75 14.2 57.5 36 -0.5 31
11:05 1009 29.8 838 24.75 14.1 57.4 36 -0.7 30.8
11:10 1009 29.8 838 24.75 14.3 57.7 36 -0.5 31
11:15 1009 29.8 838 24.75 14.8 58.6 30 -2.3 27.8
11:20 1009 29.8 838 24.75 14.9 58.9 30 -2.5 27.4
11:25 1009 29.8 838 24.75 14.5 58 33 -1.4 29.4
11:30 1009 29.8 838 24.75 14.1 57.4 37 -0.5 31.2
11:35 1009 29.8 838 24.75 13.7 56.6 35 -1.5 29.3
11:40 1009 29.8 838 24.75 14.3 57.8 33 -1.5 29.3
11:45 1009 29.8 838 24.75 14.3 57.7 33 -1.7 28.9
11:50 1009 29.8 838 24.75 14.2 57.5 35 -1 30.3
11:55 1009 29.8 838 24.75 14.6 58.3 35 -0.6 31
12:00 1009 29.8 838 24.75 15.6 60.1 32 -0.9 30.4
12:05 1009 29.8 838 24.75 15.4 59.8 34 -0.1 31.8
12:10 1009 29.8 838 24.75 15 59 31 -1.9 28.6
12:15 1009 29.8 838 24.75 14.9 58.8 34 -0.7 30.8
12:20 1009 29.8 838 24.75 12.6 54.7 43 0.5 33
12:25 1009 29.8 838 24.75 12.6 54.8 41 -0.2 31.7
12:30 1009 29.8 838 24.75 13.1 55.5 40 -0.3 31.5
12:35 1009 29.8 838 24.75 14 57.2 38 -0 32
12:40 1009 29.8 838 24.75 14.6 58.3 34 -1 30.2
12:45 1009 29.8 838 24.75 14.9 58.9 33 -1 30.2
12:50 1009 29.8 838 24.75 14.7 58.4 32 -1.7 28.9
12:55 1009 29.8 838 24.75 14 57.1 33 -2 28.5
13:00 1009 29.8 838 24.75 14.2 57.6 32 -2.3 27.8
13:05 1009 29.8 838 24.75 14.4 57.9 31 -2.3 27.9
13:10 1009 29.8 838 24.75 15.1 59.1 30 -2.1 28.2
13:15 1009 29.8 838 24.75 15.1 59.1 32 -1.4 29.5
13:20 1009 29.8 838 24.75 14.7 58.5 33 -1.2 29.9
13:25 1009 29.8 838 24.75 15.1 59.3 32 -1.2 29.8
13:30 1009 29.8 838 24.75 15.4 59.8 32 -1.2 29.8
13:35 1009 29.8 838 24.75 15.1 59.1 30 -2.3 27.8
13:40 1009 29.8 838 24.75 15 59 32 -1.3 29.7
13:45 1008 29.77 838 24.75 15.7 60.2 31 -1.4 29.5
13:50 1008 29.77 838 24.75 15.6 60.1 30 -2 28.5
13:55 1008 29.77 837 24.72 15.7 60.3 28 -2.5 27.4
14:00 1008 29.77 837 24.72 15.7 60.3 31 -1.3 29.7
14:05 1008 29.77 837 24.72 15.9 60.6 30 -1.6 29.2
14:10 1008 29.77 837 24.72 15.9 60.7 27 -2.9 26.7
14:15 1008 29.77 837 24.72 16.4 61.4 25 -3.4 25.9
14:20 1008 29.77 837 24.72 16.5 61.6 26 -3.1 26.4
14:25 1008 29.77 837 24.72 16.8 62.2 26 -2.8 27
14:30 1008 29.77 837 24.72 16.1 61 27 -2.6 27.3
14:35 1008 29.77 837 24.72 15.6 60.1 30 -1.9 28.5
14:40 1008 29.77 837 24.72 16 60.7 30 -1.7 28.9
14:45 1008 29.77 837 24.72 15.9 60.7 30 -1.4 29.4
14:50 1008 29.77 837 24.72 15.7 60.3 29 -2.1 28.2
14:55 1008 29.77 837 24.72 15.1 59.1 32 -1.4 29.5
15:00 1008 29.77 837 24.72 14.9 58.9 35 -0.3 31.5
15:05 1008 29.77 837 24.72 14.4 57.8 36 -0.5 31.1
15:10 1008 29.77 837 24.72 14.5 58.1 35 -0.6 30.9
15:15 1008 29.77 837 24.72 14.6 58.3 35 -0.7 30.8
15:20 1008 29.77 837 24.72 15.1 59.2 34 -0.5 31.1
15:25 1008 29.77 837 24.72 15.1 59.1 34 -0.5 31.1
15:30 1008 29.77 837 24.72 15.2 59.3 33 -0.7 30.7
15:35 1008 29.77 837 24.72 15.7 60.2 28 -2.7 27.2
15:40 1008 29.77 837 24.72 15.9 60.7 27 -2.8 27
15:45 1008 29.77 837 24.72 15.9 60.7 27 -2.8 26.9
15:50 1007 29.74 837 24.72 16.8 62.2 24 -3.8 25.2
15:55 1007 29.74 837 24.72 16.9 62.4 23 -4.1 24.6
16:00 1007 29.74 837 24.72 16.5 61.6 24 -4.1 24.6
16:05 1007 29.74 837 24.72 16.3 61.4 25 -3.9 25
16:10 1008 29.77 837 24.72 16.6 61.8 25 -3.5 25.7
16:15 1008 29.77 837 24.72 16.7 62 23 -4.3 24.3
16:20 1007 29.74 837 24.72 17.3 63.1 22 -4.8 23.4
16:25 1007 29.74 837 24.72 17.5 63.5 21 -5 23
16:30 1007 29.74 837 24.72 17.4 63.3 22 -4.7 23.5
16:35 1007 29.74 837 24.72 17.4 63.4 21 -4.9 23.2
16:40 1007 29.74 837 24.72 17.1 62.7 23 -4.1 24.6
16:45 1007 29.74 837 24.72 17.4 63.2 22 -4.7 23.6
16:50 1008 29.77 837 24.72 17.4 63.3 30 -0.3 31.5
16:55 1008 29.77 837 24.72 14 57.2 43 1.6 34.9
17:00 1008 29.77 837 24.72 12.9 55.2 41 -0.1 31.8
17:05 1009 29.8 838 24.75 12.3 54.2 48 1.7 35.1
17:10 1009 29.8 838 24.75 11.4 52.4 57 3.1 37.6
17:15 1009 29.8 839 24.78 10.7 51.2 61 3.4 38.2
17:20 1010 29.83 839 24.78 10.3 50.5 60 3 37.3
17:25 1010 29.83 839 24.78 10.1 50.1 62 3.1 37.6
17:30 1010 29.83 839 24.78 10.1 50.2 64 3.6 38.5
17:35 1010 29.83 840 24.81 10 50 64 3.6 38.5
17:40 1010 29.83 840 24.81 9.3 48.7 66 3.2 37.8
17:45 1011 29.85 840 24.81 9.2 48.5 64 2.8 37.1
17:50 1010 29.83 840 24.81 9.5 49.1 63 2.7 36.9
17:55 1010 29.83 840 24.81 9.4 48.8 61 2.3 36.1
18:00 1011 29.85 840 24.81 9.5 49 61 2.4 36.3
18:05 1011 29.85 840 24.81 9.6 49.3 57 1.6 34.9
18:10 1011 29.85 840 24.81 9.7 49.5 58 1.9 35.5
18:15 1011 29.85 840 24.81 9.6 49.3 58 1.9 35.4
18:20 1011 29.85 840 24.81 9.7 49.4 57 1.5 34.7
18:25 1011 29.85 840 24.81 10 49.9 57 1.8 35.2
18:30 1011 29.85 840 24.81 10 50 56 1.7 35
18:35 1011 29.85 841 24.83 9.8 49.7 56 1.6 34.8
18:40 1011 29.85 840 24.81 9.9 49.8 60 2.5 36.6
18:45 1011 29.85 841 24.83 9.9 49.8 57 1.7 35.1
18:50 1011 29.85 841 24.83 9.8 49.7 59 2.2 35.9
18:55 1011 29.85 841 24.83 9.6 49.3 59 2.1 35.8
19:00 1012 29.88 841 24.83 9.6 49.3 59 1.9 35.5
19:05 1012 29.88 841 24.83 9.3 48.8 63 2.8 37
19:10 1012 29.88 841 24.83 8.7 47.7 64 2.3 36.1
19:15 1012 29.88 841 24.83 8.5 47.2 69 3.1 37.6
19:20 1012 29.88 841 24.83 8 46.4 75 3.8 38.9
19:25 1012 29.88 841 24.83 7.3 45.1 75 3.1 37.6
19:30 1012 29.88 841 24.83 7.2 45 66 1.4 34.4
19:35 1012 29.88 841 24.83 7.3 45.2 73 2.9 37.2
19:40 1012 29.88 841 24.83 7.3 45.1 71 2.4 36.3
19:45 1012 29.88 841 24.83 7.1 44.8 73 2.6 36.8
19:50 1012 29.88 841 24.83 7.3 45.2 70 2.3 36.2
19:55 1012 29.88 841 24.83 7.4 45.3 73 2.9 37.2
20:00 1012 29.88 842 24.86 7.2 45 77 3.4 38.2
20:05 1012 29.88 842 24.86 7.2 45 73 2.8 37
20:10 1013 29.91 842 24.86 7.4 45.2 73 2.9 37.2
20:15 1013 29.91 842 24.86 7.3 45.2 78 3.7 38.6
20:20 1013 29.91 842 24.86 7.2 44.9 76 3.3 37.9
20:25 1013 29.91 842 24.86 7 44.6 74 2.7 36.9
20:30 1013 29.91 842 24.86 6.9 44.5 71 2 35.7
20:35 1013 29.91 842 24.86 7 44.5 72 2.4 36.3
20:40 1013 29.91 842 24.86 7 44.7 70 1.9 35.5
20:45 1013 29.91 842 24.86 7.2 44.9 70 2.1 35.8
20:50 1013 29.91 842 24.86 7.3 45.1 70 2.1 35.8
20:55 1013 29.91 842 24.86 7.5 45.4 68 2 35.6
21:00 1013 29.91 842 24.86 7.4 45.3 71 2.5 36.5
21:05 1013 29.91 842 24.86 6.9 44.5 76 3.1 37.5
21:10 1013 29.91 842 24.86 6.8 44.2 77 3 37.4
21:15 1013 29.91 842 24.86 6.8 44.2 73 2.3 36.2
21:20 1013 29.91 843 24.89 7 44.6 73 2.6 36.6
21:25 1013 29.91 843 24.89 7.2 44.9 71 2.3 36.2
21:30 1013 29.91 843 24.89 7.2 45 73 2.7 36.8
21:35 1013 29.91 843 24.89 6.8 44.3 78 3.2 37.7
21:40 1013 29.91 842 24.86 6.6 43.9 76 2.6 36.7
21:45 1013 29.91 842 24.86 6.7 44.1 77 3 37.4
21:50 1013 29.91 843 24.89 6.6 43.9 75 2.5 36.5
21:55 1014 29.94 843 24.89 6.8 44.2 74 2.5 36.4
22:00 1014 29.94 843 24.89 6.9 44.4 76 2.9 37.2
22:05 1014 29.94 843 24.89 6.7 44.1 75 2.6 36.6
22:10 1014 29.94 843 24.89 6.9 44.5 72 2.2 35.9
22:15 1014 29.94 843 24.89 7 44.5 71 2.2 35.9
22:20 1014 29.94 843 24.89 7.1 44.8 71 2.2 36
22:25 1014 29.94 843 24.89 7.2 45 71 2.4 36.3
22:30 1014 29.94 843 24.89 7.4 45.3 71 2.5 36.5
22:35 1014 29.94 843 24.89 7.5 45.6 69 2.2 35.9
22:40 1014 29.94 843 24.89 7.6 45.6 70 2.4 36.3
22:45 1014 29.94 843 24.89 7.5 45.5 71 2.6 36.7
22:50 1014 29.94 843 24.89 7.4 45.3 71 2.5 36.5
22:55 1014 29.94 843 24.89 7.3 45.1 71 2.5 36.4
23:00 1014 29.94 843 24.89 7.4 45.3 70 2.4 36.3
23:05 1014 29.94 843 24.89 7.4 45.3 71 2.5 36.6
23:10 1014 29.94 843 24.89 7.4 45.4 70 2.4 36.3
23:15 1014 29.94 843 24.89 7.3 45.2 70 2.2 36
23:20 1014 29.94 843 24.89 7.2 45 70 2 35.7
23:25 1014 29.94 843 24.89 7.2 44.9 65 1 33.7
23:30 1014 29.94 843 24.89 7.3 45.1 62 0.5 32.9
23:35 1014 29.94 843 24.89 7.5 45.6 59 -0 32
23:40 1014 29.94 843 24.89 7.6 45.6 58 -0 32
23:45 1014 29.94 843 24.89 7.6 45.7 58 -0.1 31.9
23:50 1014 29.94 843 24.89 7.6 45.7 59 0.1 32.1
23:55 1014 29.94 843 24.89 7.6 45.7 59 0.1 32.2
24:00 1014 29.94 843 24.89 7.6 45.6 60 0.3 32.6